• Join FlightAware (Why Join?)
  • Login
  • US Flag 
01:04PM EDT


 

Airport Tracker/Info


-or-


 

Live Flight TrackerFlight Track Log ✈ SWA709 ✈ 29-Apr-2013 ✈ KLAS - KSJC

Flight Track Log - Related Links

Times and Time Zones

All times are in EDT time to prevent confusion due to time zone crossing. See the SWA709 flight status page for this flight to view local times or setup timezone preferences in your user account.

Time Position Orientation Groundspeed Altitude Reporting Facility
EDT Latitude Longitude Course Direction KTS MPH feet Rate Location/Type
10:49AM 36.0761 -115.1683 268° West 151 174 3,100  Level Los Angeles Center
10:50AM 36.0744 -115.2300 268° West 196 226 4,600 1,500 Climbing Los Angeles Center
10:51AM 36.0497 -115.2639 228° Southwest 229 264 5,600 1,500 Climbing Los Angeles Center
10:52AM 35.9761 -115.2997 202° Southwest 271 312 7,300 2,520 Climbing Los Angeles Center
10:53AM 35.8978 -115.3914 223° Southwest 291 335 11,300 2,700 Climbing Los Angeles Center
10:54AM 35.8872 -115.4681 260° West 325 374 12,900 2,880 Climbing Los Angeles Center
10:55AM 35.8900 -115.6081 271° West 362 417 16,800 3,540 Climbing Los Angeles Center
10:56AM 35.9125 -115.7392 282° West 372 428 20,200 2,940 Climbing Los Angeles Center
10:57AM 35.9803 -115.8422 309° West 388 447 22,900 2,340 Climbing Los Angeles Center
10:58AM 36.0453 -115.9397 310° West 400 460 25,100 2,040 Climbing Los Angeles Center
10:59AM 36.1167 -116.0508 309° West 411 473 27,200 2,400 Climbing Los Angeles Center
11:00AM 36.2056 -116.1858 309° West 421 484 30,100 2,280 Climbing Los Angeles Center
11:01AM 36.2647 -116.2781 309° West 417 480 31,900 900 Climbing Los Angeles Center
11:02AM 36.3503 -116.4094 309° West 411 473 32,000  Climbing Los Angeles Center
11:03AM 36.4208 -116.5194 309° West 409 471 32,000  Level Los Angeles Center
11:04AM 36.4717 -116.6422 297° West 409 471 32,000  Level Los Angeles Center
11:05AM 36.5025 -116.7792 286° West 414 476 32,000  Level Los Angeles Center
11:06AM 36.5328 -116.9158 285° West 413 475 32,000  Level Los Angeles Center
11:07AM 36.5606 -117.0508 284° West 408 470 32,000  Level Los Angeles Center
11:08AM 36.5961 -117.2156 285° West 411 473 32,000  Level Los Angeles Center
11:09AM 36.6247 -117.3531 285° West 412 474 32,000  Level Los Angeles Center
11:10AM 36.6544 -117.4906 285° West 413 475 32,000  Level Los Angeles Center
11:11AM 36.6825 -117.6281 284° West 412 474 32,000  Level Los Angeles Center
11:12AM 36.7114 -117.7664 285° West 413 475 32,000  Level Los Angeles Center
11:13AM 36.7400 -117.9033 285° West 412 474 32,000  Level Los Angeles Center
11:14AM 36.7731 -118.0697 284° West 413 475 32,000  Level Los Angeles Center
11:15AM 36.8036 -118.2183 284° West 414 476 32,000  Level Los Angeles Center
11:16AM 36.8311 -118.3578 284° West 413 475 32,000  Level Los Angeles Center
11:17AM 36.8592 -118.4978 284° West 413 475 32,000  Level Los Angeles Center
11:18AM 36.8850 -118.6294 284° West 413 475 32,000 -240 Level Los Angeles Center
11:20AM 36.9169 -118.7936 284° West 415 478 31,500 -660 Descending Oakland Center
11:21AM 36.9461 -118.9350 285° West 416 479 30,600 -960 Descending Oakland Center
11:22AM 36.9725 -119.0753 283° West 415 478 29,600 -960 Descending Oakland Center
11:23AM 37.0000 -119.2164 284° West 420 483 28,700 -960 Descending Oakland Center
11:24AM 37.0264 -119.3578 283° West 422 486 27,700 -1,140 Descending Oakland Center
11:25AM 37.0581 -119.5244 283° West 415 478 26,500 -1,140 Descending Oakland Center
11:26AM 37.0825 -119.6611 283° West 406 467 25,500 -1,020 Descending Oakland Center
11:27AM 37.1083 -119.7986 283° West 407 468 24,500 -960 Descending Oakland Center
11:28AM 37.1294 -119.9194 282° West 402 463 23,600 -1,080 Descending Oakland Center
11:29AM 37.1578 -120.0775 283° West 382 440 22,400 -1,140 Descending Oakland Center
11:30AM 37.1825 -120.2083 283° West 378 435 21,300 -1,080 Descending Oakland Center
11:31AM 37.2067 -120.3364 283° West 368 423 20,300 -1,080 Descending Oakland Center
11:31AM 37.2167 -120.3833 285° West 364 419 19,900 -1,080 Descending Northern Cal TRACON
11:32AM 37.2000 -120.5167 261° West 438 504 18,900 -1,020 Descending Northern Cal TRACON
11:33AM 37.1667 -120.6167 247° West 371 427 18,000 -960 Descending Northern Cal TRACON
11:34AM 37.1500 -120.7500 261° West 366 421 17,100 -1,020 Descending Northern Cal TRACON
11:35AM 37.1333 -120.8667 260° West 362 417 16,000 -1,080 Descending Northern Cal TRACON
11:36AM 37.1167 -120.9833 260° West 354 407 15,100 -1,020 Descending Northern Cal TRACON
11:37AM 37.1053 -121.0744 261° West 345 397 14,200 -1,320 Descending Oakland Center
11:38AM 37.0925 -121.1808 261° West 318 366 12,500 -1,860 Descending Oakland Center
11:39AM 37.0900 -121.2928 268° West 323 372 10,400 -1,620 Descending Oakland Center
11:40AM 37.1128 -121.4161 283° West 299 344 9,300 -1,260 Descending Oakland Center
11:41AM 37.1297 -121.5117 283° West 283 326 7,900 -1,440 Descending Oakland Center
11:42AM 37.1464 -121.6056 283° West 276 318 6,400 -1,440 Descending Oakland Center
11:43AM 37.1614 -121.6950 282° West 276 318 5,000 -1,140 Descending Oakland Center
11:44AM 37.2006 -121.7556 309° West 251 289 4,100 -1,080 Descending Oakland Center
11:45AM 37.2417 -121.8006 319° Northwest 215 247 2,900 -1,080 Descending Oakland Center
11:46AM 37.2836 -121.8436 321° Northwest 203 234 1,900 -960 Descending Oakland Center
11:47AM 37.3278 -121.8889 321° Northwest 184 212 1,000 8,880 Descending Oakland Center
11:48AM 37.3567 -121.9208 319° Northwest 157 181 20,000 18,660 Climbing Oakland Center
11:50AM 37.3500 -121.9167 North  Level FlightAware Approximate